sensor_id;sensor_type;location;lat;lon;timestamp;P1;durP1;ratioP1;P2;durP2;ratioP2
44204;SDS011;30163;42.698;23.344;2023-04-24T00:00:11;10.48;;;5.53;;
44204;SDS011;30163;42.698;23.344;2023-04-24T00:02:40;10.98;;;5.95;;
44204;SDS011;30163;42.698;23.344;2023-04-24T00:05:06;8.65;;;5.40;;
44204;SDS011;30163;42.698;23.344;2023-04-24T00:07:33;15.70;;;6.57;;
44204;SDS011;30163;42.698;23.344;2023-04-24T00:09:59;9.43;;;5.53;;
44204;SDS011;30163;42.698;23.344;2023-04-24T00:12:25;11.30;;;5.70;;
44204;SDS011;30163;42.698;23.344;2023-04-24T00:14:50;10.00;;;5.80;;
44204;SDS011;30163;42.698;23.344;2023-04-24T00:17:16;10.05;;;5.70;;
44204;SDS011;30163;42.698;23.344;2023-04-24T00:19:45;10.30;;;4.57;;
44204;SDS011;30163;42.698;23.344;2023-04-24T00:22:10;9.45;;;4.80;;
44204;SDS011;30163;42.698;23.344;2023-04-24T00:24:38;13.20;;;5.55;;
44204;SDS011;30163;42.698;23.344;2023-04-24T00:27:03;8.25;;;4.82;;
44204;SDS011;30163;42.698;23.344;2023-04-24T00:29:29;10.02;;;5.00;;
44204;SDS011;30163;42.698;23.344;2023-04-24T00:31:54;8.65;;;5.15;;
44204;SDS011;30163;42.698;23.344;2023-04-24T00:34:19;9.00;;;5.35;;
44204;SDS011;30163;42.698;23.344;2023-04-24T00:36:45;9.75;;;5.53;;
44204;SDS011;30163;42.698;23.344;2023-04-24T00:39:10;11.90;;;4.93;;
44204;SDS011;30163;42.698;23.344;2023-04-24T00:41:36;9.05;;;5.13;;
44204;SDS011;30163;42.698;23.344;2023-04-24T00:44:01;10.85;;;4.63;;
44204;SDS011;30163;42.698;23.344;2023-04-24T00:46:27;10.35;;;5.25;;
44204;SDS011;30163;42.698;23.344;2023-04-24T00:48:53;7.90;;;4.68;;
44204;SDS011;30163;42.698;23.344;2023-04-24T00:51:18;11.45;;;4.78;;
44204;SDS011;30163;42.698;23.344;2023-04-24T00:53:44;6.00;;;4.40;;
44204;SDS011;30163;42.698;23.344;2023-04-24T00:56:10;9.27;;;5.20;;
44204;SDS011;30163;42.698;23.344;2023-04-24T00:58:35;14.10;;;7.30;;
44204;SDS011;30163;42.698;23.344;2023-04-24T01:01:01;11.52;;;6.95;;
44204;SDS011;30163;42.698;23.344;2023-04-24T01:03:29;13.30;;;6.45;;
44204;SDS011;30163;42.698;23.344;2023-04-24T01:05:58;13.82;;;5.35;;
44204;SDS011;30163;42.698;23.344;2023-04-24T01:08:24;9.55;;;5.88;;
44204;SDS011;30163;42.698;23.344;2023-04-24T01:10:50;10.85;;;5.30;;
44204;SDS011;30163;42.698;23.344;2023-04-24T01:13:17;8.10;;;5.30;;
44204;SDS011;30163;42.698;23.344;2023-04-24T01:15:43;11.52;;;5.03;;
44204;SDS011;30163;42.698;23.344;2023-04-24T01:18:08;9.43;;;5.22;;
44204;SDS011;30163;42.698;23.344;2023-04-24T01:20:34;9.35;;;5.10;;
44204;SDS011;30163;42.698;23.344;2023-04-24T01:23:01;11.43;;;5.70;;
44204;SDS011;30163;42.698;23.344;2023-04-24T01:25:27;9.02;;;5.47;;
44204;SDS011;30163;42.698;23.344;2023-04-24T01:27:53;7.95;;;5.45;;
44204;SDS011;30163;42.698;23.344;2023-04-24T01:30:18;8.85;;;5.30;;
44204;SDS011;30163;42.698;23.344;2023-04-24T01:32:44;8.48;;;6.03;;
44204;SDS011;30163;42.698;23.344;2023-04-24T01:35:10;8.98;;;6.05;;
44204;SDS011;30163;42.698;23.344;2023-04-24T01:37:35;8.93;;;5.50;;
44204;SDS011;30163;42.698;23.344;2023-04-24T01:40:02;10.50;;;5.63;;
44204;SDS011;30163;42.698;23.344;2023-04-24T01:42:29;12.23;;;6.70;;
44204;SDS011;30163;42.698;23.344;2023-04-24T01:44:55;10.27;;;5.70;;
44204;SDS011;30163;42.698;23.344;2023-04-24T01:47:21;10.35;;;5.88;;
44204;SDS011;30163;42.698;23.344;2023-04-24T01:49:47;14.63;;;6.38;;
44204;SDS011;30163;42.698;23.344;2023-04-24T01:52:13;12.75;;;6.53;;
44204;SDS011;30163;42.698;23.344;2023-04-24T01:54:38;12.95;;;6.32;;
44204;SDS011;30163;42.698;23.344;2023-04-24T01:57:04;14.70;;;6.85;;
44204;SDS011;30163;42.698;23.344;2023-04-24T01:59:30;12.98;;;5.78;;
44204;SDS011;30163;42.698;23.344;2023-04-24T02:01:57;13.32;;;5.63;;
44204;SDS011;30163;42.698;23.344;2023-04-24T02:04:23;13.02;;;6.13;;
44204;SDS011;30163;42.698;23.344;2023-04-24T02:06:48;10.25;;;6.07;;
44204;SDS011;30163;42.698;23.344;2023-04-24T02:09:14;10.20;;;7.07;;
44204;SDS011;30163;42.698;23.344;2023-04-24T02:11:39;13.68;;;6.85;;
44204;SDS011;30163;42.698;23.344;2023-04-24T02:14:04;11.45;;;6.78;;
44204;SDS011;30163;42.698;23.344;2023-04-24T02:16:30;12.00;;;6.72;;
44204;SDS011;30163;42.698;23.344;2023-04-24T02:18:57;12.27;;;6.68;;
44204;SDS011;30163;42.698;23.344;2023-04-24T02:21:22;10.15;;;6.45;;
44204;SDS011;30163;42.698;23.344;2023-04-24T02:23:48;13.75;;;6.03;;
44204;SDS011;30163;42.698;23.344;2023-04-24T02:26:13;11.20;;;6.50;;
44204;SDS011;30163;42.698;23.344;2023-04-24T02:28:39;14.48;;;6.65;;
44204;SDS011;30163;42.698;23.344;2023-04-24T02:31:04;10.90;;;6.13;;
44204;SDS011;30163;42.698;23.344;2023-04-24T02:33:31;13.98;;;7.40;;
44204;SDS011;30163;42.698;23.344;2023-04-24T02:35:56;12.85;;;7.07;;
44204;SDS011;30163;42.698;23.344;2023-04-24T02:38:21;10.32;;;6.47;;
44204;SDS011;30163;42.698;23.344;2023-04-24T02:40:47;10.57;;;6.53;;
44204;SDS011;30163;42.698;23.344;2023-04-24T02:43:12;10.70;;;7.22;;
44204;SDS011;30163;42.698;23.344;2023-04-24T02:45:38;12.45;;;7.22;;
44204;SDS011;30163;42.698;23.344;2023-04-24T02:48:03;12.07;;;6.53;;
44204;SDS011;30163;42.698;23.344;2023-04-24T02:50:29;14.30;;;7.47;;
44204;SDS011;30163;42.698;23.344;2023-04-24T02:52:54;18.58;;;7.32;;
44204;SDS011;30163;42.698;23.344;2023-04-24T02:55:19;16.88;;;6.50;;
44204;SDS011;30163;42.698;23.344;2023-04-24T02:57:45;12.65;;;7.22;;
44204;SDS011;30163;42.698;23.344;2023-04-24T03:00:10;11.85;;;6.60;;
44204;SDS011;30163;42.698;23.344;2023-04-24T03:02:36;16.77;;;8.25;;
44204;SDS011;30163;42.698;23.344;2023-04-24T03:05:02;12.85;;;7.05;;
44204;SDS011;30163;42.698;23.344;2023-04-24T03:10:13;11.65;;;6.72;;
44204;SDS011;30163;42.698;23.344;2023-04-24T03:12:39;11.68;;;6.95;;
44204;SDS011;30163;42.698;23.344;2023-04-24T03:15:04;15.60;;;7.70;;
44204;SDS011;30163;42.698;23.344;2023-04-24T03:17:30;13.43;;;7.20;;
44204;SDS011;30163;42.698;23.344;2023-04-24T03:19:55;10.80;;;6.88;;
44204;SDS011;30163;42.698;23.344;2023-04-24T03:22:21;13.20;;;6.88;;
44204;SDS011;30163;42.698;23.344;2023-04-24T03:24:46;15.15;;;7.63;;
44204;SDS011;30163;42.698;23.344;2023-04-24T03:27:12;21.75;;;7.68;;
44204;SDS011;30163;42.698;23.344;2023-04-24T03:29:37;14.32;;;7.55;;
44204;SDS011;30163;42.698;23.344;2023-04-24T03:32:02;10.07;;;6.35;;
44204;SDS011;30163;42.698;23.344;2023-04-24T03:34:28;14.18;;;7.75;;
44204;SDS011;30163;42.698;23.344;2023-04-24T03:36:53;11.00;;;6.90;;
44204;SDS011;30163;42.698;23.344;2023-04-24T03:39:19;15.38;;;7.15;;
44204;SDS011;30163;42.698;23.344;2023-04-24T03:41:44;14.45;;;7.78;;
44204;SDS011;30163;42.698;23.344;2023-04-24T03:44:10;12.50;;;7.57;;
44204;SDS011;30163;42.698;23.344;2023-04-24T03:46:35;12.18;;;7.15;;
44204;SDS011;30163;42.698;23.344;2023-04-24T03:49:01;11.98;;;6.70;;
44204;SDS011;30163;42.698;23.344;2023-04-24T03:51:26;19.95;;;7.07;;
44204;SDS011;30163;42.698;23.344;2023-04-24T03:53:53;13.93;;;6.88;;
44204;SDS011;30163;42.698;23.344;2023-04-24T03:56:18;12.52;;;7.25;;
44204;SDS011;30163;42.698;23.344;2023-04-24T03:58:44;11.02;;;6.55;;
44204;SDS011;30163;42.698;23.344;2023-04-24T04:01:10;9.95;;;6.60;;
44204;SDS011;30163;42.698;23.344;2023-04-24T04:03:36;11.52;;;7.28;;
44204;SDS011;30163;42.698;23.344;2023-04-24T04:06:02;12.98;;;6.25;;
44204;SDS011;30163;42.698;23.344;2023-04-24T04:08:27;12.18;;;6.88;;
44204;SDS011;30163;42.698;23.344;2023-04-24T04:10:53;11.85;;;6.43;;
44204;SDS011;30163;42.698;23.344;2023-04-24T04:13:18;11.02;;;6.22;;
44204;SDS011;30163;42.698;23.344;2023-04-24T04:15:44;9.23;;;5.72;;
44204;SDS011;30163;42.698;23.344;2023-04-24T04:18:09;10.23;;;6.20;;
44204;SDS011;30163;42.698;23.344;2023-04-24T04:20:35;11.10;;;5.43;;
44204;SDS011;30163;42.698;23.344;2023-04-24T04:23:00;10.73;;;5.95;;
44204;SDS011;30163;42.698;23.344;2023-04-24T04:25:25;15.45;;;5.72;;
44204;SDS011;30163;42.698;23.344;2023-04-24T04:27:51;10.82;;;5.30;;
44204;SDS011;30163;42.698;23.344;2023-04-24T04:30:17;9.68;;;5.65;;
44204;SDS011;30163;42.698;23.344;2023-04-24T04:32:43;10.43;;;6.20;;
44204;SDS011;30163;42.698;23.344;2023-04-24T04:35:09;9.60;;;5.50;;
44204;SDS011;30163;42.698;23.344;2023-04-24T04:37:35;13.77;;;6.30;;
44204;SDS011;30163;42.698;23.344;2023-04-24T04:40:00;12.68;;;6.10;;
44204;SDS011;30163;42.698;23.344;2023-04-24T04:42:26;14.43;;;7.32;;
44204;SDS011;30163;42.698;23.344;2023-04-24T04:44:53;15.25;;;8.18;;
44204;SDS011;30163;42.698;23.344;2023-04-24T04:47:19;21.35;;;8.18;;
44204;SDS011;30163;42.698;23.344;2023-04-24T04:49:48;12.70;;;7.68;;
44204;SDS011;30163;42.698;23.344;2023-04-24T04:52:13;16.77;;;9.18;;
44204;SDS011;30163;42.698;23.344;2023-04-24T04:54:39;16.08;;;9.55;;
44204;SDS011;30163;42.698;23.344;2023-04-24T04:57:05;24.20;;;13.07;;
44204;SDS011;30163;42.698;23.344;2023-04-24T04:59:30;26.25;;;14.05;;
44204;SDS011;30163;42.698;23.344;2023-04-24T05:01:56;28.98;;;13.82;;
44204;SDS011;30163;42.698;23.344;2023-04-24T05:04:21;27.77;;;13.82;;
44204;SDS011;30163;42.698;23.344;2023-04-24T05:06:46;26.60;;;12.35;;
44204;SDS011;30163;42.698;23.344;2023-04-24T05:09:12;18.15;;;10.70;;
44204;SDS011;30163;42.698;23.344;2023-04-24T05:11:37;16.58;;;9.50;;
44204;SDS011;30163;42.698;23.344;2023-04-24T05:14:03;11.48;;;7.80;;
44204;SDS011;30163;42.698;23.344;2023-04-24T05:16:28;25.73;;;9.20;;
44204;SDS011;30163;42.698;23.344;2023-04-24T05:18:54;17.05;;;7.28;;
44204;SDS011;30163;42.698;23.344;2023-04-24T05:21:19;13.15;;;7.57;;
44204;SDS011;30163;42.698;23.344;2023-04-24T05:23:45;18.52;;;7.60;;
44204;SDS011;30163;42.698;23.344;2023-04-24T05:26:10;14.93;;;8.00;;
44204;SDS011;30163;42.698;23.344;2023-04-24T05:28:36;17.83;;;7.88;;
44204;SDS011;30163;42.698;23.344;2023-04-24T05:31:01;12.50;;;7.45;;
44204;SDS011;30163;42.698;23.344;2023-04-24T05:33:27;16.95;;;8.05;;
44204;SDS011;30163;42.698;23.344;2023-04-24T05:35:53;16.00;;;8.02;;
44204;SDS011;30163;42.698;23.344;2023-04-24T05:38:18;14.05;;;8.27;;
44204;SDS011;30163;42.698;23.344;2023-04-24T05:40:44;13.27;;;7.20;;
44204;SDS011;30163;42.698;23.344;2023-04-24T05:43:10;21.23;;;7.30;;
44204;SDS011;30163;42.698;23.344;2023-04-24T05:45:36;12.40;;;6.53;;
44204;SDS011;30163;42.698;23.344;2023-04-24T05:48:02;11.55;;;6.80;;
44204;SDS011;30163;42.698;23.344;2023-04-24T05:50:28;14.25;;;7.80;;
44204;SDS011;30163;42.698;23.344;2023-04-24T05:52:53;21.42;;;9.15;;
44204;SDS011;30163;42.698;23.344;2023-04-24T05:55:19;13.52;;;6.90;;
44204;SDS011;30163;42.698;23.344;2023-04-24T05:57:44;14.25;;;7.45;;
44204;SDS011;30163;42.698;23.344;2023-04-24T06:00:10;12.05;;;6.75;;
44204;SDS011;30163;42.698;23.344;2023-04-24T06:02:37;16.90;;;8.38;;
44204;SDS011;30163;42.698;23.344;2023-04-24T06:05:03;11.80;;;6.63;;
44204;SDS011;30163;42.698;23.344;2023-04-24T06:07:29;13.98;;;7.57;;
44204;SDS011;30163;42.698;23.344;2023-04-24T06:09:57;19.02;;;7.38;;
44204;SDS011;30163;42.698;23.344;2023-04-24T06:12:22;14.15;;;7.78;;
44204;SDS011;30163;42.698;23.344;2023-04-24T06:14:48;16.15;;;7.03;;
44204;SDS011;30163;42.698;23.344;2023-04-24T06:17:13;20.70;;;7.82;;
44204;SDS011;30163;42.698;23.344;2023-04-24T06:19:39;11.63;;;7.75;;
44204;SDS011;30163;42.698;23.344;2023-04-24T06:22:05;18.35;;;8.07;;
44204;SDS011;30163;42.698;23.344;2023-04-24T06:24:30;12.32;;;8.25;;
44204;SDS011;30163;42.698;23.344;2023-04-24T06:26:56;14.57;;;7.95;;
44204;SDS011;30163;42.698;23.344;2023-04-24T06:29:23;16.02;;;7.57;;
44204;SDS011;30163;42.698;23.344;2023-04-24T06:31:49;16.02;;;8.35;;
44204;SDS011;30163;42.698;23.344;2023-04-24T06:34:14;16.15;;;7.50;;
44204;SDS011;30163;42.698;23.344;2023-04-24T06:36:40;10.68;;;7.70;;
44204;SDS011;30163;42.698;23.344;2023-04-24T06:39:05;17.00;;;8.82;;
44204;SDS011;30163;42.698;23.344;2023-04-24T06:41:31;13.25;;;7.78;;
44204;SDS011;30163;42.698;23.344;2023-04-24T06:43:57;13.48;;;7.75;;
44204;SDS011;30163;42.698;23.344;2023-04-24T06:46:22;10.20;;;6.70;;
44204;SDS011;30163;42.698;23.344;2023-04-24T06:48:50;11.63;;;7.18;;
44204;SDS011;30163;42.698;23.344;2023-04-24T06:51:17;16.25;;;8.90;;
44204;SDS011;30163;42.698;23.344;2023-04-24T06:53:43;15.45;;;9.65;;
44204;SDS011;30163;42.698;23.344;2023-04-24T06:56:08;15.30;;;7.35;;
44204;SDS011;30163;42.698;23.344;2023-04-24T06:58:34;14.63;;;8.52;;
44204;SDS011;30163;42.698;23.344;2023-04-24T07:00:59;19.63;;;9.77;;
44204;SDS011;30163;42.698;23.344;2023-04-24T07:03:25;21.75;;;8.13;;
44204;SDS011;30163;42.698;23.344;2023-04-24T07:05:50;13.30;;;7.70;;
44204;SDS011;30163;42.698;23.344;2023-04-24T07:08:16;15.68;;;7.43;;
44204;SDS011;30163;42.698;23.344;2023-04-24T07:10:42;23.05;;;10.65;;
44204;SDS011;30163;42.698;23.344;2023-04-24T07:13:08;15.35;;;8.43;;
44204;SDS011;30163;42.698;23.344;2023-04-24T07:15:34;12.15;;;8.23;;
44204;SDS011;30163;42.698;23.344;2023-04-24T07:17:59;11.98;;;7.72;;
44204;SDS011;30163;42.698;23.344;2023-04-24T07:20:25;13.30;;;8.52;;
44204;SDS011;30163;42.698;23.344;2023-04-24T07:22:51;22.92;;;9.13;;
44204;SDS011;30163;42.698;23.344;2023-04-24T07:25:16;15.38;;;8.52;;
44204;SDS011;30163;42.698;23.344;2023-04-24T07:27:42;16.38;;;7.55;;
44204;SDS011;30163;42.698;23.344;2023-04-24T07:30:07;17.48;;;7.95;;
44204;SDS011;30163;42.698;23.344;2023-04-24T07:32:33;16.42;;;7.43;;
44204;SDS011;30163;42.698;23.344;2023-04-24T07:35:00;15.05;;;8.02;;
44204;SDS011;30163;42.698;23.344;2023-04-24T07:37:25;17.92;;;8.25;;
44204;SDS011;30163;42.698;23.344;2023-04-24T07:39:50;18.38;;;7.88;;
44204;SDS011;30163;42.698;23.344;2023-04-24T07:42:16;16.85;;;8.65;;
44204;SDS011;30163;42.698;23.344;2023-04-24T07:44:41;12.90;;;7.95;;
44204;SDS011;30163;42.698;23.344;2023-04-24T07:47:07;11.10;;;6.82;;
44204;SDS011;30163;42.698;23.344;2023-04-24T07:49:33;12.93;;;7.18;;
44204;SDS011;30163;42.698;23.344;2023-04-24T07:51:59;11.68;;;7.22;;
44204;SDS011;30163;42.698;23.344;2023-04-24T07:54:27;15.23;;;6.93;;
44204;SDS011;30163;42.698;23.344;2023-04-24T07:56:53;11.15;;;5.90;;
44204;SDS011;30163;42.698;23.344;2023-04-24T07:59:19;18.23;;;7.35;;
44204;SDS011;30163;42.698;23.344;2023-04-24T08:01:44;12.65;;;8.20;;
44204;SDS011;30163;42.698;23.344;2023-04-24T08:04:09;16.77;;;7.68;;
44204;SDS011;30163;42.698;23.344;2023-04-24T08:06:35;10.75;;;6.70;;
44204;SDS011;30163;42.698;23.344;2023-04-24T08:09:00;11.65;;;6.43;;
44204;SDS011;30163;42.698;23.344;2023-04-24T08:11:26;13.05;;;6.78;;
44204;SDS011;30163;42.698;23.344;2023-04-24T08:13:51;16.25;;;8.30;;
44204;SDS011;30163;42.698;23.344;2023-04-24T08:16:17;13.70;;;6.80;;
44204;SDS011;30163;42.698;23.344;2023-04-24T08:18:42;12.00;;;7.00;;
44204;SDS011;30163;42.698;23.344;2023-04-24T08:21:08;10.43;;;7.03;;
44204;SDS011;30163;42.698;23.344;2023-04-24T08:23:33;14.68;;;6.72;;
44204;SDS011;30163;42.698;23.344;2023-04-24T08:25:59;11.00;;;6.35;;
44204;SDS011;30163;42.698;23.344;2023-04-24T08:28:24;18.38;;;5.20;;
44204;SDS011;30163;42.698;23.344;2023-04-24T08:30:50;9.07;;;5.13;;
44204;SDS011;30163;42.698;23.344;2023-04-24T08:33:20;10.43;;;5.53;;
44204;SDS011;30163;42.698;23.344;2023-04-24T08:35:46;7.45;;;5.20;;
44204;SDS011;30163;42.698;23.344;2023-04-24T08:38:12;9.10;;;6.00;;
44204;SDS011;30163;42.698;23.344;2023-04-24T08:40:37;9.35;;;5.32;;
44204;SDS011;30163;42.698;23.344;2023-04-24T08:43:03;15.68;;;7.10;;
44204;SDS011;30163;42.698;23.344;2023-04-24T08:45:28;10.18;;;5.80;;
44204;SDS011;30163;42.698;23.344;2023-04-24T08:47:54;11.70;;;5.85;;
44204;SDS011;30163;42.698;23.344;2023-04-24T08:50:20;16.88;;;5.88;;
44204;SDS011;30163;42.698;23.344;2023-04-24T08:52:47;8.95;;;4.88;;
44204;SDS011;30163;42.698;23.344;2023-04-24T08:55:15;6.72;;;4.43;;
44204;SDS011;30163;42.698;23.344;2023-04-24T08:57:43;8.07;;;4.70;;
44204;SDS011;30163;42.698;23.344;2023-04-24T09:00:10;7.90;;;4.57;;
44204;SDS011;30163;42.698;23.344;2023-04-24T09:02:36;9.85;;;4.85;;
44204;SDS011;30163;42.698;23.344;2023-04-24T09:05:05;8.82;;;4.72;;
44204;SDS011;30163;42.698;23.344;2023-04-24T09:07:31;8.52;;;5.50;;
44204;SDS011;30163;42.698;23.344;2023-04-24T09:09:59;15.75;;;5.05;;
44204;SDS011;30163;42.698;23.344;2023-04-24T09:12:24;8.90;;;4.45;;
44204;SDS011;30163;42.698;23.344;2023-04-24T09:14:50;8.15;;;4.53;;
44204;SDS011;30163;42.698;23.344;2023-04-24T09:17:15;6.45;;;4.60;;
44204;SDS011;30163;42.698;23.344;2023-04-24T09:19:41;14.10;;;5.70;;
44204;SDS011;30163;42.698;23.344;2023-04-24T09:22:07;7.15;;;4.82;;
44204;SDS011;30163;42.698;23.344;2023-04-24T09:24:33;14.77;;;5.57;;
44204;SDS011;30163;42.698;23.344;2023-04-24T09:26:59;6.20;;;4.55;;
44204;SDS011;30163;42.698;23.344;2023-04-24T09:29:27;6.38;;;4.72;;
44204;SDS011;30163;42.698;23.344;2023-04-24T09:31:53;8.82;;;4.25;;
44204;SDS011;30163;42.698;23.344;2023-04-24T09:34:22;9.80;;;5.18;;
44204;SDS011;30163;42.698;23.344;2023-04-24T09:36:48;9.32;;;4.65;;
44204;SDS011;30163;42.698;23.344;2023-04-24T09:39:15;8.65;;;4.85;;
44204;SDS011;30163;42.698;23.344;2023-04-24T09:41:51;5.50;;;4.50;;
44204;SDS011;30163;42.698;23.344;2023-04-24T09:44:27;6.47;;;4.30;;
44204;SDS011;30163;42.698;23.344;2023-04-24T09:49:23;5.85;;;4.50;;
44204;SDS011;30163;42.698;23.344;2023-04-24T09:51:49;5.57;;;3.75;;
44204;SDS011;30163;42.698;23.344;2023-04-24T09:54:15;7.40;;;4.75;;
44204;SDS011;30163;42.698;23.344;2023-04-24T09:56:48;6.82;;;4.43;;
44204;SDS011;30163;42.698;23.344;2023-04-24T09:59:15;8.90;;;4.45;;
44204;SDS011;30163;42.698;23.344;2023-04-24T10:01:42;9.75;;;4.45;;
44204;SDS011;30163;42.698;23.344;2023-04-24T10:04:19;7.20;;;4.60;;
44204;SDS011;30163;42.698;23.344;2023-04-24T10:06:46;5.68;;;3.72;;
44204;SDS011;30163;42.698;23.344;2023-04-24T10:09:13;9.30;;;3.92;;
44204;SDS011;30163;42.698;23.344;2023-04-24T10:11:44;7.85;;;4.28;;
44204;SDS011;30163;42.698;23.344;2023-04-24T10:14:14;5.05;;;3.72;;
44204;SDS011;30163;42.698;23.344;2023-04-24T10:16:40;10.05;;;4.43;;
44204;SDS011;30163;42.698;23.344;2023-04-24T10:19:06;4.93;;;3.60;;
44204;SDS011;30163;42.698;23.344;2023-04-24T10:21:32;9.27;;;4.15;;
44204;SDS011;30163;42.698;23.344;2023-04-24T10:23:58;7.80;;;4.45;;
44204;SDS011;30163;42.698;23.344;2023-04-24T10:26:25;7.50;;;4.32;;
44204;SDS011;30163;42.698;23.344;2023-04-24T10:28:51;5.88;;;4.00;;
44204;SDS011;30163;42.698;23.344;2023-04-24T10:31:17;6.78;;;3.70;;
44204;SDS011;30163;42.698;23.344;2023-04-24T10:33:43;5.82;;;3.75;;
44204;SDS011;30163;42.698;23.344;2023-04-24T10:36:10;5.70;;;3.85;;
44204;SDS011;30163;42.698;23.344;2023-04-24T10:38:37;4.78;;;3.08;;
44204;SDS011;30163;42.698;23.344;2023-04-24T10:41:09;5.65;;;4.43;;
44204;SDS011;30163;42.698;23.344;2023-04-24T10:43:39;5.55;;;3.50;;
44204;SDS011;30163;42.698;23.344;2023-04-24T10:46:05;11.07;;;3.83;;
44204;SDS011;30163;42.698;23.344;2023-04-24T10:48:31;7.47;;;4.40;;
44204;SDS011;30163;42.698;23.344;2023-04-24T10:50:57;5.82;;;3.80;;
44204;SDS011;30163;42.698;23.344;2023-04-24T10:53:24;6.65;;;3.92;;
44204;SDS011;30163;42.698;23.344;2023-04-24T10:58:26;9.80;;;4.05;;
44204;SDS011;30163;42.698;23.344;2023-04-24T11:01:02;10.00;;;4.78;;
44204;SDS011;30163;42.698;23.344;2023-04-24T11:03:28;7.43;;;4.50;;
44204;SDS011;30163;42.698;23.344;2023-04-24T11:06:02;6.00;;;4.25;;
44204;SDS011;30163;42.698;23.344;2023-04-24T11:08:29;12.18;;;4.78;;
44204;SDS011;30163;42.698;23.344;2023-04-24T11:11:15;5.75;;;4.10;;
44204;SDS011;30163;42.698;23.344;2023-04-24T11:16:20;11.15;;;5.70;;
44204;SDS011;30163;42.698;23.344;2023-04-24T11:18:52;10.70;;;4.68;;
44204;SDS011;30163;42.698;23.344;2023-04-24T11:21:22;9.82;;;4.00;;
44204;SDS011;30163;42.698;23.344;2023-04-24T11:23:47;7.68;;;3.80;;
44204;SDS011;30163;42.698;23.344;2023-04-24T11:26:17;15.93;;;5.15;;
44204;SDS011;30163;42.698;23.344;2023-04-24T11:28:44;6.13;;;4.15;;
44204;SDS011;30163;42.698;23.344;2023-04-24T11:34:09;6.72;;;4.82;;
44204;SDS011;30163;42.698;23.344;2023-04-24T11:36:37;10.18;;;4.40;;
44204;SDS011;30163;42.698;23.344;2023-04-24T11:39:03;7.95;;;5.55;;
44204;SDS011;30163;42.698;23.344;2023-04-24T11:41:28;8.60;;;4.90;;
44204;SDS011;30163;42.698;23.344;2023-04-24T11:43:54;8.00;;;4.50;;
44204;SDS011;30163;42.698;23.344;2023-04-24T11:46:21;10.57;;;5.00;;
44204;SDS011;30163;42.698;23.344;2023-04-24T11:48:46;6.72;;;4.40;;
44204;SDS011;30163;42.698;23.344;2023-04-24T11:51:15;7.07;;;4.80;;
44204;SDS011;30163;42.698;23.344;2023-04-24T11:53:41;4.35;;;3.55;;
44204;SDS011;30163;42.698;23.344;2023-04-24T11:56:08;11.07;;;4.10;;
44204;SDS011;30163;42.698;23.344;2023-04-24T11:58:40;4.47;;;3.35;;
44204;SDS011;30163;42.698;23.344;2023-04-24T12:01:05;6.27;;;4.30;;
44204;SDS011;30163;42.698;23.344;2023-04-24T12:03:30;3.95;;;3.28;;
44204;SDS011;30163;42.698;23.344;2023-04-24T12:06:06;4.13;;;3.35;;
44204;SDS011;30163;42.698;23.344;2023-04-24T12:08:35;5.60;;;2.97;;
44204;SDS011;30163;42.698;23.344;2023-04-24T12:11:01;4.32;;;3.28;;
44204;SDS011;30163;42.698;23.344;2023-04-24T12:13:27;6.55;;;3.80;;
44204;SDS011;30163;42.698;23.344;2023-04-24T12:15:52;8.27;;;3.58;;
44204;SDS011;30163;42.698;23.344;2023-04-24T12:18:18;5.82;;;3.60;;
44204;SDS011;30163;42.698;23.344;2023-04-24T12:20:43;5.38;;;3.40;;
44204;SDS011;30163;42.698;23.344;2023-04-24T12:23:08;5.22;;;3.22;;
44204;SDS011;30163;42.698;23.344;2023-04-24T12:25:34;3.47;;;3.00;;
44204;SDS011;30163;42.698;23.344;2023-04-24T12:30:28;3.95;;;3.08;;
44204;SDS011;30163;42.698;23.344;2023-04-24T12:32:57;5.50;;;3.53;;
44204;SDS011;30163;42.698;23.344;2023-04-24T12:35:23;4.43;;;3.17;;
44204;SDS011;30163;42.698;23.344;2023-04-24T12:37:51;6.72;;;4.55;;
44204;SDS011;30163;42.698;23.344;2023-04-24T12:40:17;5.47;;;3.33;;
44204;SDS011;30163;42.698;23.344;2023-04-24T12:42:47;4.13;;;3.25;;
44204;SDS011;30163;42.698;23.344;2023-04-24T12:45:14;6.80;;;3.50;;
44204;SDS011;30163;42.698;23.344;2023-04-24T12:47:40;6.72;;;3.17;;
44204;SDS011;30163;42.698;23.344;2023-04-24T12:50:07;4.53;;;3.38;;
44204;SDS011;30163;42.698;23.344;2023-04-24T12:52:33;5.50;;;3.17;;
44204;SDS011;30163;42.698;23.344;2023-04-24T12:55:00;3.33;;;2.80;;
44204;SDS011;30163;42.698;23.344;2023-04-24T12:57:26;4.10;;;3.28;;
44204;SDS011;30163;42.698;23.344;2023-04-24T12:59:56;4.32;;;2.88;;
44204;SDS011;30163;42.698;23.344;2023-04-24T13:02:23;4.13;;;2.90;;
44204;SDS011;30163;42.698;23.344;2023-04-24T13:04:49;4.15;;;3.00;;
44204;SDS011;30163;42.698;23.344;2023-04-24T13:07:15;5.00;;;3.50;;
44204;SDS011;30163;42.698;23.344;2023-04-24T13:09:41;3.80;;;3.13;;
44204;SDS011;30163;42.698;23.344;2023-04-24T13:12:07;5.15;;;3.45;;
44204;SDS011;30163;42.698;23.344;2023-04-24T13:14:33;10.23;;;3.75;;
44204;SDS011;30163;42.698;23.344;2023-04-24T13:16:59;5.57;;;3.42;;
44204;SDS011;30163;42.698;23.344;2023-04-24T13:19:25;8.80;;;4.00;;
44204;SDS011;30163;42.698;23.344;2023-04-24T13:21:51;6.88;;;4.03;;
44204;SDS011;30163;42.698;23.344;2023-04-24T13:24:17;4.15;;;3.60;;
44204;SDS011;30163;42.698;23.344;2023-04-24T13:26:43;4.57;;;3.70;;
44204;SDS011;30163;42.698;23.344;2023-04-24T13:29:08;6.40;;;3.78;;
44204;SDS011;30163;42.698;23.344;2023-04-24T13:31:34;6.15;;;3.33;;
44204;SDS011;30163;42.698;23.344;2023-04-24T13:34:00;4.13;;;3.35;;
44204;SDS011;30163;42.698;23.344;2023-04-24T13:36:26;4.40;;;3.22;;
44204;SDS011;30163;42.698;23.344;2023-04-24T13:38:51;6.10;;;3.50;;
44204;SDS011;30163;42.698;23.344;2023-04-24T13:41:17;6.10;;;3.42;;
44204;SDS011;30163;42.698;23.344;2023-04-24T13:43:42;8.60;;;3.72;;
44204;SDS011;30163;42.698;23.344;2023-04-24T13:46:08;5.63;;;3.80;;
44204;SDS011;30163;42.698;23.344;2023-04-24T13:48:33;4.13;;;3.08;;
44204;SDS011;30163;42.698;23.344;2023-04-24T13:50:59;6.00;;;2.83;;
44204;SDS011;30163;42.698;23.344;2023-04-24T13:53:24;4.78;;;2.97;;
44204;SDS011;30163;42.698;23.344;2023-04-24T13:55:50;5.45;;;3.20;;
44204;SDS011;30163;42.698;23.344;2023-04-24T13:58:15;6.53;;;3.75;;
44204;SDS011;30163;42.698;23.344;2023-04-24T14:00:41;4.82;;;3.38;;
44204;SDS011;30163;42.698;23.344;2023-04-24T14:03:06;8.15;;;3.40;;
44204;SDS011;30163;42.698;23.344;2023-04-24T14:05:31;6.28;;;4.07;;
44204;SDS011;30163;42.698;23.344;2023-04-24T14:07:57;4.57;;;3.40;;
44204;SDS011;30163;42.698;23.344;2023-04-24T14:10:23;5.97;;;3.50;;
44204;SDS011;30163;42.698;23.344;2023-04-24T14:12:48;5.07;;;3.33;;
44204;SDS011;30163;42.698;23.344;2023-04-24T14:15:14;3.95;;;3.30;;
44204;SDS011;30163;42.698;23.344;2023-04-24T14:17:39;5.70;;;3.55;;
44204;SDS011;30163;42.698;23.344;2023-04-24T14:20:05;4.63;;;3.30;;
44204;SDS011;30163;42.698;23.344;2023-04-24T14:22:32;3.80;;;3.22;;
44204;SDS011;30163;42.698;23.344;2023-04-24T14:24:57;5.40;;;3.20;;
44204;SDS011;30163;42.698;23.344;2023-04-24T14:27:22;3.72;;;2.83;;
44204;SDS011;30163;42.698;23.344;2023-04-24T14:29:48;5.95;;;2.83;;
44204;SDS011;30163;42.698;23.344;2023-04-24T14:32:14;4.78;;;3.72;;
44204;SDS011;30163;42.698;23.344;2023-04-24T14:34:40;3.47;;;2.95;;